Time;durP1;ratioP1;P1;durP2;ratioP2;P2;SDS_P1;SDS_P2;PMS_P1;PMS_P2;Temp;Humidity;BMP_temperature;BMP_pressure;BME280_temperature;BME280_humidity;BME280_pressure;Samples;Min_cycle;Max_cycle;Signal;HPM_P1;HPM_P2
2023/12/10 00:02:18;;;;;;;50.67;11.97;;;0.90;99.90;;;-1.31;100.00;99848.19;10492107;27;96510;-88
2023/12/10 00:07:22;;;;;;;34.20;10.60;;;0.90;99.90;;;-1.28;100.00;99845.34;10455932;27;96759;-88
2023/12/10 00:12:27;;;;;;;43.37;11.87;;;0.90;99.90;;;-1.27;100.00;99841.81;10501950;27;96431;-88
2023/12/10 00:17:30;;;;;;;45.67;13.47;;;0.90;99.90;;;-1.23;100.00;99827.66;10483630;27;96400;-88
2023/12/10 00:22:34;;;;;;;53.87;12.70;;;0.90;99.90;;;-1.26;100.00;99806.97;10445980;27;96615;-89
2023/12/10 00:27:38;;;;;;;37.87;12.13;;;0.90;99.90;;;-1.23;100.00;99805.00;10462233;27;97802;-88
2023/12/10 00:32:41;;;;;;;46.70;12.80;;;0.90;99.90;;;-1.23;100.00;99822.44;10436106;27;96569;-88
2023/12/10 00:37:45;;;;;;;35.07;10.97;;;1.00;99.90;;;-1.20;100.00;99819.59;10457351;27;96966;-88
2023/12/10 00:42:49;;;;;;;32.10;9.93;;;1.00;99.90;;;-1.18;100.00;99809.94;10477973;27;96799;-88
2023/12/10 00:47:52;;;;;;;32.33;10.23;;;1.00;99.90;;;-1.18;100.00;99804.72;10455852;27;96523;-89
2023/12/10 00:52:56;;;;;;;33.13;10.60;;;1.00;99.90;;;-1.15;100.00;99805.31;10485147;27;96925;-88
2023/12/10 00:57:59;;;;;;;33.03;10.33;;;1.00;99.90;;;-1.15;100.00;99799.28;10440591;27;96486;-88
2023/12/10 01:03:06;;;;;;;41.07;11.73;;;1.00;99.90;;;-1.16;100.00;99792.41;10441294;27;96507;-88
2023/12/10 01:08:10;;;;;;;33.00;10.50;;;1.00;99.90;;;-1.15;100.00;99781.03;10461355;27;96601;-88
2023/12/10 01:13:14;;;;;;;42.93;11.23;;;1.00;99.90;;;-1.16;100.00;99768.94;10466473;27;96548;-88
2023/12/10 01:18:17;;;;;;;37.17;10.20;;;1.00;99.90;;;-1.09;100.00;99783.22;10455676;27;97598;-88
2023/12/10 01:23:22;;;;;;;35.43;11.67;;;1.10;99.90;;;-1.04;100.00;99785.53;10420731;27;96801;-88
2023/12/10 01:28:25;;;;;;;42.20;11.57;;;1.10;99.90;;;-1.01;100.00;99788.75;10499847;27;96475;-88
2023/12/10 01:33:29;;;;;;;43.70;10.03;;;1.10;99.90;;;-1.02;100.00;99774.06;10495692;27;96464;-88
2023/12/10 01:38:34;;;;;;;35.87;10.93;;;1.20;99.90;;;-0.98;100.00;99757.25;10468204;27;97806;-88
2023/12/10 01:43:37;;;;;;;39.03;11.60;;;1.20;99.90;;;-0.98;100.00;99749.41;10456692;27;97500;-88
2023/12/10 01:48:43;;;;;;;34.70;10.03;;;1.20;99.90;;;-1.00;100.00;99743.50;10466303;27;96630;-88
2023/12/10 01:53:48;;;;;;;42.00;10.43;;;1.20;99.90;;;-0.95;100.00;99744.00;10442618;27;97345;-88
2023/12/10 01:58:51;;;;;;;35.93;10.87;;;1.20;99.90;;;-0.94;100.00;99737.84;10412219;28;97038;-88
2023/12/10 02:03:55;;;;;;;41.00;10.80;;;1.20;99.90;;;-0.92;100.00;99724.69;10439546;27;96655;-88
2023/12/10 02:08:59;;;;;;;35.83;11.33;;;1.30;99.90;;;-0.92;100.00;99715.09;10466167;27;96524;-88
2023/12/10 02:14:04;;;;;;;31.40;10.37;;;1.30;99.90;;;-0.91;100.00;99693.28;10456201;27;98144;-88
2023/12/10 02:19:07;;;;;;;36.60;10.43;;;1.30;99.90;;;-0.89;100.00;99691.41;10473893;27;97012;-88
2023/12/10 02:24:20;;;;;;;35.80;10.60;;;1.30;99.90;;;-0.90;100.00;99699.31;10435500;27;96567;-88
2023/12/10 02:29:23;;;;;;;40.23;11.10;;;1.20;99.90;;;-0.92;100.00;99694.22;10486102;27;96513;-88
2023/12/10 02:34:27;;;;;;;38.03;10.57;;;1.30;99.90;;;-0.89;100.00;99686.19;10488262;27;97655;-88
2023/12/10 02:39:31;;;;;;;35.77;9.93;;;1.30;99.90;;;-0.89;100.00;99667.94;10461905;27;96506;-89
2023/12/10 02:44:34;;;;;;;37.00;10.83;;;1.30;99.90;;;-0.86;100.00;99656.44;10461826;27;96641;-88
2023/12/10 02:49:38;;;;;;;40.77;12.47;;;1.30;99.90;;;-0.90;100.00;99671.50;10463205;27;96529;-88
2023/12/10 02:54:42;;;;;;;48.60;11.27;;;1.30;99.90;;;-0.88;100.00;99648.72;10459749;27;97868;-89
2023/12/10 02:59:45;;;;;;;33.63;11.13;;;1.30;99.90;;;-0.83;100.00;99633.59;10461970;27;96569;-88
2023/12/10 03:04:49;;;;;;;37.53;11.03;;;1.30;99.90;;;-0.91;100.00;99604.59;10445664;27;96568;-88
2023/12/10 03:09:53;;;;;;;35.13;10.27;;;1.30;99.90;;;-0.79;100.00;99623.75;10428924;27;97664;-88
2023/12/10 03:14:56;;;;;;;40.00;11.37;;;1.30;99.90;;;-0.81;100.00;99616.03;10485440;27;96604;-88
2023/12/10 03:19:59;;;;;;;49.70;11.73;;;1.30;99.90;;;-0.82;100.00;99610.94;10487215;27;96791;-89
2023/12/10 03:25:03;;;;;;;32.97;10.57;;;1.30;99.90;;;-0.79;100.00;99628.97;10447151;27;96638;-88
2023/12/10 03:30:08;;;;;;;37.07;10.97;;;1.30;99.90;;;-0.82;100.00;99635.25;10491531;27;96508;-88
2023/12/10 03:35:12;;;;;;;30.73;11.13;;;1.30;99.90;;;-0.86;100.00;99631.19;10478349;27;96693;-89
2023/12/10 03:40:15;;;;;;;35.53;11.13;;;1.30;99.90;;;-0.76;100.00;99633.97;10449121;27;96723;-89
2023/12/10 03:45:20;;;;;;;34.00;10.23;;;1.40;99.90;;;-0.75;100.00;99627.81;10444762;27;96479;-89
2023/12/10 03:50:23;;;;;;;34.63;11.27;;;1.40;99.90;;;-0.81;100.00;99610.81;10443864;27;96485;-88
2023/12/10 03:55:27;;;;;;;29.97;10.50;;;1.40;99.90;;;-0.70;100.00;99635.31;10449335;27;96865;-88
2023/12/10 04:00:31;;;;;;;32.83;11.60;;;1.40;99.90;;;-0.69;100.00;99636.97;10467654;27;96497;-89
2023/12/10 04:05:35;;;;;;;32.27;11.03;;;1.40;99.90;;;-0.69;100.00;99639.59;10503975;27;96507;-89
2023/12/10 04:10:38;;;;;;;42.00;12.33;;;1.50;99.90;;;-0.65;100.00;99628.00;10455184;27;96779;-89
2023/12/10 04:15:44;;;;;;;39.07;12.83;;;1.50;99.90;;;-0.64;100.00;99622.66;10473596;27;96562;-88
2023/12/10 04:20:48;;;;;;;35.10;11.83;;;1.50;99.90;;;-0.63;100.00;99626.09;10468280;27;96474;-88
2023/12/10 04:25:52;;;;;;;37.40;11.53;;;1.50;99.90;;;-0.69;100.00;99611.72;10459783;27;96634;-88
2023/12/10 04:30:56;;;;;;;33.70;11.80;;;1.50;99.90;;;-0.67;100.00;99612.44;10442784;27;96531;-88
2023/12/10 04:36:00;;;;;;;30.50;10.17;;;1.50;99.90;;;-0.71;100.00;99610.19;10442446;27;96465;-88
2023/12/10 04:41:04;;;;;;;36.37;11.60;;;1.40;99.90;;;-0.72;100.00;99609.34;10461927;27;96669;-87
2023/12/10 04:46:07;;;;;;;36.80;10.70;;;1.40;99.90;;;-0.75;100.00;99619.16;10444210;27;96938;-87
2023/12/10 04:51:11;;;;;;;43.13;12.23;;;1.40;99.90;;;-0.81;100.00;99623.88;10441692;27;96633;-86
2023/12/10 04:56:15;;;;;;;41.60;11.83;;;1.30;99.90;;;-0.88;100.00;99609.59;10441474;27;96621;-87
2023/12/10 05:01:18;;;;;;;37.60;11.33;;;1.30;99.90;;;-0.91;100.00;99609.81;10492877;27;96577;-87
2023/12/10 05:06:23;;;;;;;39.33;13.03;;;1.20;99.90;;;-0.90;100.00;99608.03;10486048;27;96572;-86
2023/12/10 05:11:27;;;;;;;37.17;10.17;;;1.20;99.90;;;-0.90;100.00;99613.25;10439080;27;96983;-86
2023/12/10 05:16:31;;;;;;;33.20;10.87;;;1.20;99.90;;;-0.94;100.00;99604.81;10453802;27;96471;-86
2023/12/10 05:21:34;;;;;;;38.73;12.33;;;1.20;99.90;;;-0.90;100.00;99618.47;10468691;27;98089;-86
2023/12/10 05:26:38;;;;;;;27.97;9.37;;;1.20;99.90;;;-0.95;100.00;99611.00;10453563;27;96909;-86
2023/12/10 05:31:42;;;;;;;33.07;9.63;;;1.20;99.90;;;-0.92;100.00;99629.00;10475119;27;96454;-86
2023/12/10 05:36:45;;;;;;;33.20;9.80;;;1.20;99.90;;;-0.91;100.00;99620.25;10477294;27;96569;-87
2023/12/10 05:41:49;;;;;;;33.03;11.83;;;1.20;99.90;;;-0.91;100.00;99630.66;10411939;27;96560;-86
2023/12/10 05:46:52;;;;;;;27.70;9.53;;;1.20;99.90;;;-0.97;100.00;99623.28;10464942;27;96560;-86
2023/12/10 05:51:56;;;;;;;40.53;10.70;;;1.20;99.90;;;-0.91;100.00;99632.44;10488307;27;96575;-86
2023/12/10 05:57:00;;;;;;;38.20;10.90;;;1.20;99.90;;;-0.92;100.00;99628.19;10465189;27;96742;-87
2023/12/10 06:02:03;;;;;;;35.43;10.43;;;1.20;99.90;;;-0.91;100.00;99633.28;10481579;27;96608;-87
2023/12/10 06:07:07;;;;;;;39.77;12.43;;;1.20;99.90;;;-0.90;100.00;99628.91;10480380;27;98284;-86
2023/12/10 06:12:11;;;;;;;41.60;12.10;;;1.30;99.90;;;-0.93;100.00;99627.34;10430135;27;96539;-86
2023/12/10 06:17:15;;;;;;;44.53;14.13;;;1.30;99.90;;;-0.91;100.00;99633.28;10475096;27;96591;-86
2023/12/10 06:22:19;;;;;;;37.10;12.13;;;1.30;99.90;;;-0.90;100.00;99632.38;10455413;27;96924;-86
2023/12/10 06:27:22;;;;;;;34.90;11.40;;;1.20;99.90;;;-0.88;100.00;99646.13;10461318;27;97843;-86
2023/12/10 06:32:26;;;;;;;28.17;8.90;;;1.30;99.90;;;-0.95;100.00;99631.84;10439003;27;96600;-86
2023/12/10 06:37:32;;;;;;;31.90;10.10;;;1.30;99.90;;;-0.91;100.00;99645.50;10463944;27;96428;-86
2023/12/10 06:42:35;;;;;;;25.90;9.57;;;1.30;99.90;;;-0.91;100.00;99653.31;10475848;27;96630;-86
2023/12/10 06:47:40;;;;;;;29.23;9.43;;;1.30;99.90;;;-0.91;100.00;99667.19;10418063;27;96471;-85
2023/12/10 06:52:44;;;;;;;38.53;12.87;;;1.30;99.90;;;-0.89;100.00;99670.53;10455312;27;96622;-84
2023/12/10 06:57:48;;;;;;;35.80;10.97;;;1.30;99.90;;;-0.87;100.00;99679.09;10465563;27;98075;-84
2023/12/10 07:02:51;;;;;;;32.10;10.87;;;1.30;99.90;;;-0.92;100.00;99675.97;10481814;27;96344;-84
2023/12/10 07:07:55;;;;;;;30.80;10.77;;;1.30;99.90;;;-0.88;100.00;99684.41;10467410;27;96880;-84
2023/12/10 07:12:58;;;;;;;38.87;11.67;;;1.30;99.90;;;-0.95;100.00;99667.53;10438767;27;96459;-85
2023/12/10 07:18:02;;;;;;;35.70;12.30;;;1.30;99.90;;;-0.89;100.00;99688.81;10455816;27;96434;-85
2023/12/10 07:23:06;;;;;;;36.03;10.90;;;1.30;99.90;;;-0.85;100.00;99692.84;10434846;27;96531;-85
2023/12/10 07:28:10;;;;;;;40.30;11.30;;;1.30;99.90;;;-0.83;100.00;99696.19;10420318;27;96826;-85
2023/12/10 07:33:14;;;;;;;35.50;12.13;;;1.30;99.90;;;-0.82;100.00;99700.47;10429385;27;96585;-85
2023/12/10 07:38:18;;;;;;;40.53;12.43;;;1.30;99.90;;;-0.86;100.00;99688.56;10471054;27;98079;-85
2023/12/10 07:43:21;;;;;;;34.17;14.40;;;1.30;99.90;;;-0.80;100.00;99710.78;10456456;27;96492;-85
2023/12/10 07:48:26;;;;;;;27.63;9.93;;;1.40;99.90;;;-0.78;100.00;99710.69;10479882;27;96607;-86
2023/12/10 07:53:30;;;;;;;27.57;9.33;;;1.40;99.90;;;-0.86;100.00;99701.63;10447910;27;96769;-86
2023/12/10 07:58:33;;;;;;;27.13;9.53;;;1.40;99.90;;;-0.79;100.00;99712.44;10446258;27;96644;-86
2023/12/10 08:03:38;;;;;;;38.90;11.03;;;1.40;99.90;;;-0.77;100.00;99734.06;10452835;27;97329;-87
2023/12/10 08:08:41;;;;;;;48.60;11.27;;;1.40;99.90;;;-0.73;100.00;99738.13;10431080;27;96519;-87
2023/12/10 08:13:45;;;;;;;47.30;14.67;;;1.40;99.90;;;-0.72;100.00;99726.75;10428700;27;96548;-86
2023/12/10 08:18:50;;;;;;;25.13;9.07;;;1.50;99.90;;;-0.66;100.00;99733.28;10461311;27;96833;-87
2023/12/10 08:23:54;;;;;;;29.73;10.57;;;1.50;99.90;;;-0.65;100.00;99725.38;10454948;27;96551;-87
2023/12/10 08:28:57;;;;;;;227.83;35.37;;;1.60;99.90;;;-0.59;100.00;99738.00;10453623;27;96572;-87
2023/12/10 08:34:01;;;;;;;44.63;12.77;;;1.60;99.90;;;-0.64;100.00;99727.03;10456993;27;96876;-86
2023/12/10 08:39:06;;;;;;;48.67;12.80;;;1.60;99.90;;;-0.59;100.00;99742.38;10436510;27;96571;-87
2023/12/10 08:44:10;;;;;;;23.87;9.47;;;1.60;99.90;;;-0.55;100.00;99746.44;10441017;27;97987;-87
2023/12/10 08:49:14;;;;;;;23.63;9.00;;;1.70;99.90;;;-0.50;100.00;99760.00;10445874;27;96951;-86
2023/12/10 08:54:17;;;;;;;30.93;9.97;;;1.70;99.90;;;-0.48;100.00;99768.56;10453379;27;96771;-86
2023/12/10 08:59:24;;;;;;;24.00;9.33;;;1.80;99.90;;;-0.44;100.00;99770.00;10448794;27;97225;-86
2023/12/10 09:04:31;;;;;;;24.13;9.07;;;1.80;99.90;;;-0.39;100.00;99770.50;10424705;27;96787;-86
2023/12/10 09:09:34;;;;;;;26.67;9.13;;;1.90;99.90;;;-0.33;100.00;99777.06;10451120;27;96784;-85
2023/12/10 09:14:38;;;;;;;75.80;16.33;;;1.90;99.90;;;-0.29;100.00;99784.59;10480728;27;96581;-85
2023/12/10 09:19:42;;;;;;;24.93;9.50;;;2.00;99.90;;;-0.23;100.00;99804.22;10456492;27;97882;-85
2023/12/10 09:24:45;;;;;;;48.17;14.67;;;2.00;99.90;;;-0.18;100.00;99783.84;10470163;27;99086;-85
2023/12/10 09:29:49;;;;;;;32.73;11.37;;;2.10;99.90;;;-0.13;100.00;99784.31;10421091;27;96809;-85
2023/12/10 09:34:53;;;;;;;22.20;8.13;;;2.20;99.90;;;-0.05;100.00;99782.00;10413288;27;97183;-85
2023/12/10 09:39:58;;;;;;;28.60;11.13;;;2.20;99.90;;;-0.02;100.00;99778.31;10489442;27;96873;-85
2023/12/10 09:45:02;;;;;;;31.37;13.23;;;2.30;99.90;;;0.05;100.00;99776.94;10460871;27;96737;-85
2023/12/10 09:50:06;;;;;;;32.37;13.43;;;2.30;99.90;;;0.07;100.00;99782.06;10464333;27;96610;-85
2023/12/10 09:55:10;;;;;;;30.90;12.63;;;2.30;99.90;;;0.12;100.00;99778.19;10461597;27;97981;-86
2023/12/10 10:00:16;;;;;;;32.27;13.03;;;2.30;99.90;;;0.20;100.00;99777.59;10427104;27;96669;-86
2023/12/10 10:05:19;;;;;;;39.00;14.83;;;2.40;99.90;;;0.33;100.00;99783.59;10456470;27;96489;-86
2023/12/10 10:10:25;;;;;;;44.10;16.43;;;2.60;99.90;;;0.41;100.00;99783.84;10445710;27;96854;-86
2023/12/10 10:15:30;;;;;;;27.60;11.27;;;2.70;99.90;;;0.51;100.00;99799.72;10442393;27;96964;-86
2023/12/10 10:20:34;;;;;;;23.47;10.30;;;2.70;99.90;;;0.57;100.00;99788.78;10453503;27;97041;-85
2023/12/10 10:25:40;;;;;;;34.53;14.67;;;2.70;99.90;;;0.69;100.00;99782.66;10448497;27;96555;-84
2023/12/10 10:30:44;;;;;;;33.57;13.37;;;2.80;99.90;;;0.74;100.00;99770.06;10411294;27;96480;-84
2023/12/10 10:35:49;;;;;;;33.80;14.00;;;2.90;99.90;;;0.91;100.00;99783.66;10491125;27;97415;-84
2023/12/10 10:40:54;;;;;;;30.50;12.17;;;3.00;99.90;;;0.95;100.00;99788.50;10449155;27;97095;-85
2023/12/10 10:45:58;;;;;;;27.50;12.07;;;3.10;99.90;;;0.94;100.00;99780.78;10445650;27;97313;-85
2023/12/10 10:51:02;;;;;;;20.40;9.17;;;3.10;99.90;;;0.95;100.00;99782.44;10431908;27;96605;-85
2023/12/10 10:56:08;;;;;;;19.33;10.30;;;3.10;99.90;;;0.97;100.00;99796.28;10457983;27;96435;-85
2023/12/10 11:01:44;;;;;;;16.37;7.80;;;3.10;99.90;;;0.96;100.00;99799.81;10487541;27;96513;-85
2023/12/10 11:06:50;;;;;;;12.27;6.20;;;3.10;99.90;;;0.88;100.00;99799.56;10419754;28;97323;-84
2023/12/10 11:11:54;;;;;;;16.60;8.57;;;3.00;99.90;;;0.89;100.00;99809.06;10419851;28;96906;-85
2023/12/10 11:17:04;;;;;;;45.60;12.87;;;3.00;99.90;;;0.90;100.00;99813.34;10432191;27;96961;-85
2023/12/10 11:22:08;;;;;;;30.83;12.77;;;3.00;99.90;;;0.94;100.00;99801.72;10471042;27;96828;-85
2023/12/10 11:27:12;;;;;;;103.57;28.17;;;3.00;99.90;;;1.00;100.00;99811.72;10426940;27;96630;-85
2023/12/10 11:32:16;;;;;;;43.73;17.27;;;3.10;99.90;;;1.09;100.00;99816.28;10436517;27;96858;-84
2023/12/10 11:37:20;;;;;;;33.20;14.47;;;3.20;99.90;;;1.11;100.00;99819.59;10463514;27;96747;-86
2023/12/10 11:42:25;;;;;;;21.93;11.53;;;3.30;99.90;;;1.15;100.00;99820.19;10469046;27;96498;-86
2023/12/10 11:47:30;;;;;;;24.90;11.20;;;3.40;99.90;;;1.18;100.00;99838.28;10463535;27;97541;-87
2023/12/10 11:52:35;;;;;;;14.63;7.60;;;3.30;99.90;;;1.20;100.00;99834.59;10469511;27;96656;-87
2023/12/10 11:57:45;;;;;;;48.67;16.57;;;3.30;99.90;;;1.15;100.00;99821.03;10484352;27;96553;-87
2023/12/10 12:02:49;;;;;;;24.33;11.33;;;3.40;99.90;;;1.08;100.00;99835.53;10488928;27;96516;-87
2023/12/10 12:07:53;;;;;;;25.27;11.83;;;3.40;99.90;;;1.20;100.00;99842.47;10460073;27;96409;-87
2023/12/10 12:12:57;;;;;;;19.40;9.53;;;3.40;99.90;;;1.20;100.00;99850.31;10470310;27;96563;-86
2023/12/10 12:18:03;;;;;;;18.63;7.63;;;3.40;99.90;;;1.22;100.00;99851.03;10478268;27;96584;-86
2023/12/10 12:23:07;;;;;;;20.17;9.60;;;3.30;99.90;;;1.19;100.00;99859.09;10402402;27;96520;-86
2023/12/10 12:28:12;;;;;;;25.03;11.97;;;3.40;99.90;;;1.14;100.00;99856.00;10427056;27;96725;-86
2023/12/10 12:33:18;;;;;;;28.63;12.57;;;3.40;99.90;;;1.29;100.00;99870.53;10453126;27;97471;-88
2023/12/10 12:38:22;;;;;;;29.13;13.73;;;3.50;99.90;;;1.40;100.00;99874.13;10461030;27;96491;-88
2023/12/10 12:43:26;;;;;;;32.40;14.23;;;3.60;99.90;;;1.49;100.00;99876.03;10432467;27;96715;-88
2023/12/10 12:48:30;;;;;;;24.90;11.13;;;3.70;99.90;;;1.46;100.00;99868.44;10423332;27;96393;-86
2023/12/10 12:53:33;;;;;;;27.50;12.57;;;3.70;99.90;;;1.40;100.00;99876.75;10416162;27;96488;-86
2023/12/10 12:58:57;;;;;;;30.33;10.73;;;3.70;99.90;;;1.40;100.00;99901.16;10449230;27;96509;-85
2023/12/10 13:04:00;;;;;;;37.77;16.37;;;3.60;99.90;;;1.34;100.00;99878.06;10460164;27;96499;-85
2023/12/10 13:09:07;;;;;;;27.93;12.97;;;3.60;99.90;;;1.37;100.00;99887.44;10449015;27;97814;-85
2023/12/10 13:14:11;;;;;;;25.07;10.83;;;3.60;99.90;;;1.43;100.00;99902.69;10467756;27;96747;-86
2023/12/10 13:19:15;;;;;;;24.70;12.20;;;3.60;99.90;;;1.26;100.00;99890.88;10476281;27;96418;-87
2023/12/10 13:24:19;;;;;;;22.50;10.27;;;3.60;99.90;;;1.33;100.00;99902.56;10431186;27;98075;-87
2023/12/10 13:29:23;;;;;;;30.60;14.03;;;3.60;99.90;;;1.33;100.00;99903.41;10418417;27;97494;-87
2023/12/10 13:34:27;;;;;;;26.67;12.23;;;3.60;99.90;;;1.30;100.00;99911.47;10454866;27;96545;-87
2023/12/10 13:39:31;;;;;;;34.67;13.40;;;3.50;99.90;;;1.32;100.00;99927.09;10496538;27;96614;-88
2023/12/10 13:44:34;;;;;;;33.20;14.67;;;3.50;99.90;;;1.31;100.00;99925.38;10450642;27;97841;-88
2023/12/10 13:49:39;;;;;;;31.10;13.83;;;3.60;99.90;;;1.40;100.00;99942.22;10457082;27;97472;-88
2023/12/10 13:54:43;;;;;;;26.33;13.27;;;3.60;99.90;;;1.38;100.00;99931.84;10451545;27;96590;-88
2023/12/10 13:59:48;;;;;;;30.30;15.37;;;3.60;99.90;;;1.36;100.00;99948.63;10462553;27;96521;-88
2023/12/10 14:04:52;;;;;;;28.87;13.97;;;3.50;99.90;;;1.30;100.00;99947.28;10451335;27;96493;-89
2023/12/10 14:09:55;;;;;;;35.77;17.27;;;3.50;99.90;;;1.29;100.00;99941.22;10474308;27;96506;-88
2023/12/10 14:14:59;;;;;;;23.80;12.43;;;3.50;99.90;;;1.27;100.00;99950.16;10476556;27;96496;-88
2023/12/10 14:20:09;;;;;;;30.70;12.47;;;3.50;99.90;;;1.24;100.00;99966.06;10481117;27;96643;-88
2023/12/10 14:25:15;;;;;;;33.57;14.67;;;3.40;99.90;;;1.19;100.00;99962.94;10457866;27;96441;-88
2023/12/10 14:30:18;;;;;;;34.93;15.70;;;3.40;99.90;;;1.15;100.00;99959.75;10472097;27;96683;-88
2023/12/10 14:35:22;;;;;;;34.70;16.17;;;3.30;99.90;;;1.06;100.00;99966.47;10432795;27;96518;-88
2023/12/10 14:40:26;;;;;;;52.93;20.90;;;3.30;99.90;;;1.04;100.00;99975.41;10464708;27;97006;-88
2023/12/10 14:45:30;;;;;;;51.37;19.37;;;3.20;99.90;;;0.97;100.00;99975.03;10489457;27;98186;-87
2023/12/10 14:50:33;;;;;;;44.43;17.67;;;3.20;99.90;;;0.95;100.00;99991.75;10466197;27;96728;-87
2023/12/10 14:55:37;;;;;;;38.37;14.83;;;3.10;99.90;;;0.89;100.00;99986.97;10416956;27;96559;-87
2023/12/10 15:00:40;;;;;;;58.67;20.90;;;3.10;99.90;;;0.81;100.00;100005.84;10431059;27;96838;-87
2023/12/10 15:05:44;;;;;;;27.83;13.80;;;3.00;99.90;;;0.73;100.00;100006.41;10488610;27;96526;-87
2023/12/10 15:10:48;;;;;;;34.13;14.53;;;2.90;99.90;;;0.61;100.00;100009.91;10483075;27;96566;-87
2023/12/10 15:15:51;;;;;;;33.43;15.10;;;2.80;99.90;;;0.46;100.00;100010.97;10501226;27;96474;-87
2023/12/10 15:20:55;;;;;;;31.67;15.53;;;2.60;99.90;;;0.25;100.00;100013.31;10489096;27;96955;-87
2023/12/10 15:25:59;;;;;;;32.20;13.53;;;2.40;99.90;;;0.08;100.00;100026.72;10459546;27;96596;-87
2023/12/10 15:31:03;;;;;;;35.80;15.33;;;2.30;99.90;;;-0.08;100.00;100034.75;10428022;27;96607;-87
2023/12/10 15:36:12;;;;;;;36.77;15.20;;;2.10;99.90;;;-0.22;100.00;100053.97;10460960;27;96560;-87
2023/12/10 15:41:16;;;;;;;34.40;13.50;;;2.00;99.90;;;-0.35;100.00;100064.41;10446775;27;96681;-86
2023/12/10 15:46:19;;;;;;;37.73;15.70;;;1.80;99.90;;;-0.48;100.00;100063.53;10452111;27;98775;-86
2023/12/10 15:51:23;;;;;;;31.97;12.43;;;1.70;99.90;;;-0.55;100.00;100055.25;10437765;27;96669;-86
2023/12/10 15:56:27;;;;;;;30.93;15.47;;;1.60;99.90;;;-0.59;100.00;100069.44;10449812;27;97307;-85
2023/12/10 16:01:30;;;;;;;37.00;17.17;;;1.60;99.90;;;-0.66;100.00;100072.53;10445656;27;96574;-85
2023/12/10 16:06:35;;;;;;;50.97;18.93;;;1.60;99.90;;;-0.66;100.00;100082.97;10477392;27;96476;-85
2023/12/10 16:11:42;;;;;;;119.07;38.23;;;1.50;99.90;;;-0.67;100.00;100081.31;10490626;27;96604;-85
2023/12/10 16:16:45;;;;;;;162.77;47.40;;;1.50;99.90;;;-0.75;100.00;100088.81;10462819;27;96623;-86
2023/12/10 16:21:49;;;;;;;174.53;42.40;;;1.40;99.90;;;-0.90;100.00;100080.16;10460722;27;96525;-86
2023/12/10 16:26:53;;;;;;;103.33;29.80;;;1.40;99.90;;;-0.94;100.00;100102.19;10454235;27;97876;-85
2023/12/10 16:31:57;;;;;;;65.70;27.00;;;1.20;99.90;;;-1.00;100.00;100107.78;10439893;27;98285;-88
2023/12/10 16:37:01;;;;;;;48.73;19.37;;;1.20;99.90;;;-1.11;100.00;100105.84;10457218;27;96579;-87
2023/12/10 16:42:05;;;;;;;45.43;17.00;;;1.10;99.90;;;-1.18;100.00;100107.19;10475310;27;96517;-87
2023/12/10 16:47:09;;;;;;;37.73;17.23;;;1.00;99.90;;;-1.26;100.00;100109.41;10451730;27;97670;-86
2023/12/10 16:52:13;;;;;;;51.70;23.40;;;0.90;99.90;;;-1.33;100.00;100113.31;10461222;27;97064;-86
2023/12/10 16:57:16;;;;;;;44.80;17.97;;;0.90;99.90;;;-1.37;100.00;100118.75;10460238;27;96657;-87
2023/12/10 17:02:22;;;;;;;45.17;19.07;;;0.80;99.90;;;-1.40;100.00;100120.69;10457460;27;96559;-81
2023/12/10 17:07:25;;;;;;;32.53;14.77;;;0.80;99.90;;;-1.41;100.00;100127.66;10467567;27;96478;-82
2023/12/10 17:12:29;;;;;;;67.80;17.00;;;0.80;99.90;;;-1.40;100.00;100125.91;10457963;27;96513;-82
2023/12/10 17:17:33;;;;;;;33.53;13.37;;;0.80;99.90;;;-1.42;100.00;100118.19;10474075;27;96871;-82
2023/12/10 17:22:37;;;;;;;45.77;15.37;;;0.80;99.90;;;-1.34;100.00;100133.34;10480978;27;96640;-82
2023/12/10 17:27:41;;;;;;;22.63;11.53;;;0.80;99.90;;;-1.31;100.00;100135.78;10473163;27;96914;-82
2023/12/10 17:32:44;;;;;;;24.97;11.13;;;0.90;99.90;;;-1.25;100.00;100147.59;10436247;27;96653;-82
2023/12/10 17:37:48;;;;;;;24.87;11.37;;;0.90;99.90;;;-1.25;100.00;100135.41;10471978;27;97514;-83
2023/12/10 17:42:52;;;;;;;33.43;13.93;;;0.90;99.90;;;-1.25;100.00;100142.38;10473895;27;97016;-82
2023/12/10 17:47:57;;;;;;;27.60;12.93;;;0.90;99.90;;;-1.19;100.00;100155.88;10445862;27;96980;-84
2023/12/10 17:53:00;;;;;;;40.57;15.67;;;0.90;99.90;;;-1.15;100.00;100143.47;10439405;27;97534;-84
2023/12/10 17:58:05;;;;;;;40.93;17.13;;;1.00;99.90;;;-1.06;100.00;100144.69;10460432;27;96812;-84
2023/12/10 18:03:09;;;;;;;40.13;15.63;;;1.00;99.90;;;-1.06;100.00;100127.28;10437247;27;96786;-83
2023/12/10 18:08:15;;;;;;;38.60;16.20;;;1.10;99.90;;;-0.92;100.00;100139.44;10426207;27;98820;-82
2023/12/10 18:13:19;;;;;;;65.93;27.00;;;1.20;99.90;;;-0.89;100.00;100142.72;10436090;27;97795;-82
2023/12/10 18:18:23;;;;;;;51.33;23.23;;;1.20;99.90;;;-0.82;100.00;100140.53;10435237;27;97079;-82
2023/12/10 18:23:27;;;;;;;45.97;19.83;;;1.30;99.90;;;-0.79;100.00;100134.28;10438182;27;97320;-82
2023/12/10 18:28:33;;;;;;;34.20;15.23;;;1.40;99.90;;;-0.77;100.00;100135.03;10475015;27;98273;-82
2023/12/10 18:33:37;;;;;;;34.67;14.83;;;1.50;99.90;;;-0.73;100.00;100132.13;10454294;27;97479;-83
2023/12/10 18:38:41;;;;;;;34.53;13.87;;;1.50;99.90;;;-0.71;100.00;100142.47;10439087;27;97469;-83
2023/12/10 18:43:45;;;;;;;41.57;15.97;;;1.50;99.90;;;-0.72;100.00;100135.56;10448204;27;98180;-83
2023/12/10 18:48:49;;;;;;;37.67;16.73;;;1.40;99.90;;;-0.85;100.00;100119.84;10434677;27;96754;-83
2023/12/10 18:53:55;;;;;;;44.03;18.37;;;1.30;99.90;;;-0.92;100.00;100119.41;10444178;27;96637;-83
2023/12/10 18:58:59;;;;;;;48.40;19.17;;;1.30;99.90;;;-0.93;100.00;100115.13;10423300;27;97148;-83
2023/12/10 19:04:03;;;;;;;41.47;17.83;;;1.20;99.90;;;-0.92;100.00;100122.00;10443387;27;97523;-82
2023/12/10 19:09:07;;;;;;;43.43;17.20;;;1.30;99.90;;;-0.88;100.00;100117.44;10430824;27;97339;-83
2023/12/10 19:14:10;;;;;;;62.00;17.27;;;1.30;99.90;;;-0.85;100.00;100115.47;10438674;27;97583;-82
2023/12/10 19:19:14;;;;;;;58.00;20.63;;;1.30;99.90;;;-0.83;100.00;100102.34;10429819;27;98727;-82
2023/12/10 19:24:18;;;;;;;65.07;21.17;;;1.30;99.90;;;-0.82;100.00;100099.63;10435980;27;96634;-82
2023/12/10 19:29:22;;;;;;;39.53;17.03;;;1.40;99.90;;;-0.75;100.00;100100.06;10456216;27;96674;-82
2023/12/10 19:34:25;;;;;;;35.90;13.97;;;1.40;99.90;;;-0.76;100.00;100100.19;10429899;27;96554;-83
2023/12/10 19:39:29;;;;;;;34.10;14.30;;;1.40;99.90;;;-0.72;100.00;100107.72;10444975;27;96683;-82
2023/12/10 19:44:36;;;;;;;70.83;23.53;;;1.50;99.90;;;-0.70;100.00;100125.88;10434366;27;97416;-83
2023/12/10 19:49:40;;;;;;;49.43;19.37;;;1.50;99.90;;;-0.69;100.00;100119.72;10444574;27;98234;-83
2023/12/10 19:54:43;;;;;;;45.70;18.07;;;1.50;99.90;;;-0.76;100.00;100105.41;10432577;27;97945;-82
2023/12/10 19:59:47;;;;;;;35.53;15.13;;;1.50;99.90;;;-0.77;100.00;100116.78;10454907;27;96817;-82
2023/12/10 20:04:51;;;;;;;85.93;22.03;;;1.40;99.90;;;-0.88;100.00;100107.84;10453083;27;96569;-82
2023/12/10 20:09:55;;;;;;;60.73;22.03;;;1.30;99.90;;;-0.98;100.00;100109.34;10447816;27;96817;-82
2023/12/10 20:14:58;;;;;;;67.83;20.87;;;1.20;99.90;;;-1.18;100.00;100096.75;10441232;27;97905;-82
2023/12/10 20:20:00;;;;;;;60.80;19.03;;;1.10;99.90;;;-1.26;100.00;100099.84;10428136;27;96857;-82
2023/12/10 20:25:05;;;;;;;35.87;16.37;;;0.90;99.90;;;-1.37;100.00;100099.66;10459633;27;96539;-82
2023/12/10 20:30:17;;;;;;;26.57;11.70;;;0.90;99.90;;;-1.58;100.00;100088.75;10431914;27;96837;-82
2023/12/10 20:35:25;;;;;;;39.23;15.90;;;0.70;99.90;;;-1.56;100.00;100092.13;10414044;27;96510;-82
2023/12/10 20:40:28;;;;;;;41.57;16.33;;;0.60;99.90;;;-1.62;100.00;100103.75;10424738;27;96938;-81